Time;durP1;ratioP1;P1;durP2;ratioP2;P2;SDS_P1;SDS_P2;PMS_P1;PMS_P2;Temp;Humidity;BMP_temperature;BMP_pressure;BME280_temperature;BME280_humidity;BME280_pressure;Samples;Min_cycle;Max_cycle;Signal;HPM_P1;HPM_P2
2023/10/23 00:00:05;;;;;;;76.93;19.43;;;;;;;;;;5012450;28;20075;-70
2023/10/23 00:02:30;;;;;;;75.43;19.40;;;;;;;;;;5012036;28;20384;-69
2023/10/23 00:04:55;;;;;;;71.80;19.23;;;;;;;;;;5011143;28;20010;-70
2023/10/23 00:07:21;;;;;;;76.77;19.03;;;;;;;;;;5011768;28;20022;-69
2023/10/23 00:09:46;;;;;;;65.73;18.07;;;;;;;;;;5010409;28;20400;-69
2023/10/23 00:12:11;;;;;;;58.70;16.53;;;;;;;;;;5007652;28;20026;-65
2023/10/23 00:14:36;;;;;;;71.33;18.80;;;;;;;;;;5007023;28;20037;-65
2023/10/23 00:17:02;;;;;;;81.30;19.60;;;;;;;;;;5011568;28;20129;-66
2023/10/23 00:19:27;;;;;;;73.97;18.93;;;;;;;;;;5000867;28;20483;-66
2023/10/23 00:21:52;;;;;;;70.23;18.23;;;;;;;;;;5008391;28;20022;-64
2023/10/23 00:24:18;;;;;;;76.43;20.27;;;;;;;;;;5002503;28;20022;-65
2023/10/23 00:26:43;;;;;;;82.63;19.57;;;;;;;;;;5008572;28;20022;-65
2023/10/23 00:29:08;;;;;;;75.40;19.90;;;;;;;;;;5011664;28;20064;-65
2023/10/23 00:31:34;;;;;;;62.57;16.63;;;;;;;;;;5011819;28;20357;-64
2023/10/23 00:33:59;;;;;;;64.00;18.57;;;;;;;;;;5010978;28;20147;-65
2023/10/23 00:36:24;;;;;;;80.93;21.17;;;;;;;;;;5009803;28;20086;-64
2023/10/23 00:38:49;;;;;;;67.67;19.20;;;;;;;;;;5007058;28;20071;-64
2023/10/23 00:41:15;;;;;;;113.77;30.77;;;;;;;;;;5011256;28;20439;-64
2023/10/23 00:43:40;;;;;;;85.30;21.60;;;;;;;;;;5011759;28;20029;-65
2023/10/23 00:46:15;;;;;;;83.53;20.80;;;;;;;;;;5011316;28;20049;-65
2023/10/23 00:48:41;;;;;;;76.87;19.67;;;;;;;;;;5011293;28;20105;-64
2023/10/23 00:51:06;;;;;;;81.80;20.33;;;;;;;;;;5011374;28;20038;-65
2023/10/23 00:53:33;;;;;;;87.00;20.47;;;;;;;;;;5011233;28;20392;-64
2023/10/23 00:55:59;;;;;;;79.80;20.20;;;;;;;;;;5008857;28;20018;-65
2023/10/23 00:58:27;;;;;;;76.10;20.20;;;;;;;;;;5009778;28;20029;-64
2023/10/23 01:03:55;;;;;;;91.57;20.20;;;;;;;;;;5008361;28;20101;-65
2023/10/23 01:06:20;;;;;;;85.87;20.07;;;;;;;;;;5007917;28;20088;-64
2023/10/23 01:08:46;;;;;;;86.10;19.33;;;;;;;;;;5008989;28;20153;-64
2023/10/23 01:11:11;;;;;;;86.17;19.73;;;;;;;;;;5008726;28;20058;-65
2023/10/23 01:13:38;;;;;;;96.80;18.67;;;;;;;;;;5007124;28;20022;-65
2023/10/23 01:16:03;;;;;;;320.10;18.83;;;;;;;;;;5010345;28;20479;-64
2023/10/23 01:18:28;;;;;;;125.80;17.00;;;;;;;;;;5010876;28;20046;-65
2023/10/23 01:20:54;;;;;;;129.00;19.27;;;;;;;;;;5011140;28;20492;-69
2023/10/23 01:23:23;;;;;;;103.07;20.67;;;;;;;;;;5010582;28;20399;-69
2023/10/23 01:25:48;;;;;;;92.20;19.07;;;;;;;;;;5007123;28;20510;-69
2023/10/23 01:28:14;;;;;;;97.93;21.23;;;;;;;;;;5008657;28;20058;-69
2023/10/23 01:30:40;;;;;;;136.03;23.10;;;;;;;;;;5006683;28;20057;-69
2023/10/23 01:33:05;;;;;;;135.93;22.13;;;;;;;;;;5009644;28;20037;-69
2023/10/23 01:35:30;;;;;;;246.80;26.57;;;;;;;;;;5007500;28;20030;-69
2023/10/23 01:37:56;;;;;;;441.30;30.10;;;;;;;;;;5010915;28;20026;-69
2023/10/23 01:40:21;;;;;;;281.43;24.13;;;;;;;;;;5011268;28;20098;-69
2023/10/23 01:42:47;;;;;;;136.17;22.93;;;;;;;;;;5006932;28;20017;-69
2023/10/23 01:45:12;;;;;;;301.60;27.67;;;;;;;;;;5010863;28;20029;-69
2023/10/23 01:47:38;;;;;;;405.67;31.27;;;;;;;;;;5010683;28;20418;-69
2023/10/23 01:50:03;;;;;;;422.63;30.20;;;;;;;;;;5008729;28;20032;-69
2023/10/23 01:52:28;;;;;;;422.43;29.93;;;;;;;;;;5008929;28;20040;-69
2023/10/23 01:54:54;;;;;;;312.50;27.10;;;;;;;;;;5010407;28;20388;-69
2023/10/23 01:57:19;;;;;;;400.63;29.47;;;;;;;;;;5010722;28;20100;-70
2023/10/23 01:59:44;;;;;;;459.53;29.73;;;;;;;;;;5010516;28;20026;-69
2023/10/23 02:02:09;;;;;;;474.03;31.63;;;;;;;;;;5009154;28;20026;-69
2023/10/23 02:04:35;;;;;;;499.07;32.50;;;;;;;;;;5009724;28;20022;-69
2023/10/23 02:07:00;;;;;;;516.97;31.93;;;;;;;;;;5000830;28;20044;-70
2023/10/23 02:09:25;;;;;;;497.40;32.77;;;;;;;;;;5010395;28;20150;-69
2023/10/23 02:11:51;;;;;;;484.13;31.53;;;;;;;;;;5004745;28;20033;-69
2023/10/23 02:14:16;;;;;;;447.43;30.33;;;;;;;;;;5001912;28;20022;-69
2023/10/23 02:16:41;;;;;;;422.87;29.23;;;;;;;;;;5010468;28;20037;-69
2023/10/23 02:19:08;;;;;;;429.83;28.53;;;;;;;;;;5007593;28;20050;-70
2023/10/23 02:21:33;;;;;;;345.17;27.20;;;;;;;;;;5010291;28;20428;-69
2023/10/23 02:23:59;;;;;;;446.00;30.83;;;;;;;;;;5008899;28;20105;-70
2023/10/23 02:26:24;;;;;;;348.70;28.20;;;;;;;;;;5007403;28;20533;-69
2023/10/23 02:28:50;;;;;;;282.60;25.47;;;;;;;;;;5006943;28;20018;-69
2023/10/23 02:31:16;;;;;;;367.43;27.73;;;;;;;;;;5006303;28;20022;-69
2023/10/23 02:33:41;;;;;;;317.80;26.33;;;;;;;;;;5004519;28;20114;-69
2023/10/23 02:36:07;;;;;;;351.83;24.67;;;;;;;;;;5008861;28;20025;-70
2023/10/23 02:38:32;;;;;;;280.23;22.40;;;;;;;;;;5008623;28;20026;-69
2023/10/23 02:40:57;;;;;;;226.30;20.60;;;;;;;;;;5007310;28;20083;-69
2023/10/23 02:43:22;;;;;;;318.47;24.70;;;;;;;;;;5008622;28;20018;-65
2023/10/23 02:45:48;;;;;;;327.80;23.50;;;;;;;;;;5009925;28;20391;-65
2023/10/23 02:48:13;;;;;;;341.97;24.60;;;;;;;;;;5008374;28;20014;-65
2023/10/23 02:50:39;;;;;;;327.77;25.00;;;;;;;;;;5009831;28;20085;-65
2023/10/23 02:53:05;;;;;;;408.87;27.57;;;;;;;;;;5007783;28;20037;-65
2023/10/23 02:55:30;;;;;;;345.27;23.73;;;;;;;;;;5005881;28;20061;-65
2023/10/23 02:57:56;;;;;;;345.53;23.13;;;;;;;;;;5006471;28;20042;-65
2023/10/23 03:00:21;;;;;;;371.13;23.23;;;;;;;;;;5009730;28;20032;-65
2023/10/23 03:02:46;;;;;;;493.87;26.27;;;;;;;;;;5009881;28;20022;-65
2023/10/23 03:05:13;;;;;;;493.07;28.77;;;;;;;;;;5009904;28;20101;-65
2023/10/23 03:07:39;;;;;;;339.60;23.93;;;;;;;;;;5009628;28;20379;-65
2023/10/23 03:10:04;;;;;;;390.07;24.73;;;;;;;;;;5009810;28;20026;-65
2023/10/23 03:12:29;;;;;;;335.67;25.33;;;;;;;;;;5009624;28;20365;-65
2023/10/23 03:14:54;;;;;;;222.47;24.17;;;;;;;;;;5008247;28;20034;-66
2023/10/23 03:17:20;;;;;;;304.83;26.57;;;;;;;;;;5009195;28;20026;-65
2023/10/23 03:19:46;;;;;;;266.17;26.57;;;;;;;;;;5006553;28;20032;-65
2023/10/23 03:22:11;;;;;;;304.57;26.80;;;;;;;;;;5002835;28;20026;-65
2023/10/23 03:24:36;;;;;;;305.93;25.60;;;;;;;;;;5009261;28;20106;-65
2023/10/23 03:27:01;;;;;;;341.10;28.77;;;;;;;;;;5009172;28;20041;-66
2023/10/23 03:29:27;;;;;;;252.47;23.33;;;;;;;;;;5009073;28;20086;-66
2023/10/23 03:31:52;;;;;;;261.30;23.30;;;;;;;;;;5009047;28;20079;-66
2023/10/23 03:34:17;;;;;;;354.87;24.13;;;;;;;;;;5009426;28;20101;-65
2023/10/23 03:36:44;;;;;;;295.10;24.70;;;;;;;;;;5000397;28;20030;-65
2023/10/23 03:39:09;;;;;;;348.43;24.73;;;;;;;;;;5009079;28;20022;-66
2023/10/23 03:41:35;;;;;;;396.23;26.90;;;;;;;;;;5009003;28;20072;-66
2023/10/23 03:44:02;;;;;;;345.07;26.00;;;;;;;;;;5009444;28;20387;-66
2023/10/23 03:46:27;;;;;;;361.77;26.27;;;;;;;;;;5008004;28;20026;-65
2023/10/23 03:48:52;;;;;;;278.43;23.57;;;;;;;;;;5005282;28;20384;-65
2023/10/23 03:51:17;;;;;;;355.40;24.43;;;;;;;;;;5007374;28;20022;-66
2023/10/23 03:53:43;;;;;;;308.93;24.63;;;;;;;;;;5009733;28;20383;-66
2023/10/23 03:56:08;;;;;;;298.43;23.47;;;;;;;;;;5012217;28;20602;-65
2023/10/23 03:58:33;;;;;;;335.70;23.93;;;;;;;;;;5010961;28;20045;-66
2023/10/23 04:00:58;;;;;;;421.57;25.77;;;;;;;;;;5011131;28;20053;-65
2023/10/23 04:03:24;;;;;;;308.57;23.70;;;;;;;;;;5010207;28;20391;-66
2023/10/23 04:05:49;;;;;;;318.97;22.90;;;;;;;;;;5011881;28;20022;-66
2023/10/23 04:08:14;;;;;;;339.87;23.37;;;;;;;;;;5007404;28;20022;-65
2023/10/23 04:10:49;;;;;;;369.70;24.57;;;;;;;;;;5011526;28;20108;-65
2023/10/23 04:13:15;;;;;;;374.13;25.73;;;;;;;;;;5010457;28;20026;-65
2023/10/23 04:15:40;;;;;;;419.90;25.67;;;;;;;;;;5009115;28;20357;-66
2023/10/23 04:18:05;;;;;;;378.27;26.07;;;;;;;;;;5008159;28;20045;-65
2023/10/23 04:20:31;;;;;;;396.50;27.03;;;;;;;;;;5012185;28;20034;-65
2023/10/23 04:22:57;;;;;;;432.40;27.73;;;;;;;;;;5012172;28;20506;-66
2023/10/23 04:25:22;;;;;;;451.67;29.33;;;;;;;;;;5007609;28;20029;-65
2023/10/23 04:27:47;;;;;;;432.63;28.90;;;;;;;;;;5007753;28;20191;-65
2023/10/23 04:30:13;;;;;;;462.67;30.07;;;;;;;;;;5006437;28;20030;-66
2023/10/23 04:32:38;;;;;;;267.00;25.23;;;;;;;;;;5005392;28;20026;-66
2023/10/23 04:35:03;;;;;;;283.40;27.90;;;;;;;;;;5004219;28;20025;-66
2023/10/23 04:37:29;;;;;;;427.00;29.67;;;;;;;;;;5009971;28;20097;-65
2023/10/23 04:39:54;;;;;;;359.07;28.23;;;;;;;;;;5005664;28;20112;-65
2023/10/23 04:42:19;;;;;;;385.40;27.37;;;;;;;;;;5008279;28;20018;-65
2023/10/23 04:44:48;;;;;;;367.67;28.43;;;;;;;;;;5008410;28;20029;-67
2023/10/23 04:47:13;;;;;;;433.13;31.27;;;;;;;;;;5006252;28;20495;-65
2023/10/23 04:49:38;;;;;;;379.37;28.43;;;;;;;;;;5039876;28;20022;-65
2023/10/23 04:52:04;;;;;;;413.40;30.87;;;;;;;;;;5026809;28;20522;-66
2023/10/23 04:54:29;;;;;;;410.63;31.73;;;;;;;;;;5029015;28;20025;-65
2023/10/23 04:56:54;;;;;;;414.50;32.37;;;;;;;;;;5011600;28;20022;-65
2023/10/23 04:59:19;;;;;;;299.80;26.73;;;;;;;;;;5011844;28;20025;-65
2023/10/23 05:01:45;;;;;;;250.57;27.00;;;;;;;;;;5011394;28;20026;-70
2023/10/23 05:04:10;;;;;;;240.53;26.70;;;;;;;;;;5010755;28;20044;-66
2023/10/23 05:06:36;;;;;;;285.30;28.37;;;;;;;;;;5010367;28;20018;-66
2023/10/23 05:09:02;;;;;;;275.00;28.27;;;;;;;;;;5010066;28;20010;-65
2023/10/23 05:11:27;;;;;;;325.13;29.87;;;;;;;;;;5011648;28;20373;-65
2023/10/23 05:13:52;;;;;;;284.33;28.40;;;;;;;;;;5007537;28;20025;-65
2023/10/23 05:16:18;;;;;;;275.30;27.40;;;;;;;;;;5010979;28;20056;-65
2023/10/23 05:18:43;;;;;;;345.47;30.67;;;;;;;;;;5010559;28;20034;-65
2023/10/23 05:21:12;;;;;;;397.63;31.27;;;;;;;;;;5010995;28;20029;-65
2023/10/23 05:23:40;;;;;;;443.27;33.03;;;;;;;;;;5018873;28;20033;-66
2023/10/23 05:26:07;;;;;;;442.87;34.03;;;;;;;;;;5015976;28;20022;-65
2023/10/23 05:28:32;;;;;;;325.70;31.60;;;;;;;;;;5011217;28;20484;-65
2023/10/23 05:30:58;;;;;;;257.33;27.83;;;;;;;;;;5011122;28;20037;-65
2023/10/23 05:33:23;;;;;;;277.97;28.93;;;;;;;;;;5011353;28;20036;-65
2023/10/23 05:35:48;;;;;;;186.80;26.33;;;;;;;;;;5010528;28;20361;-65
2023/10/23 05:38:13;;;;;;;270.87;27.17;;;;;;;;;;5010360;28;20021;-65
2023/10/23 05:40:39;;;;;;;305.13;30.13;;;;;;;;;;5008855;28;20069;-65
2023/10/23 05:43:04;;;;;;;290.87;28.40;;;;;;;;;;5010713;28;20082;-65
2023/10/23 05:45:29;;;;;;;257.27;28.80;;;;;;;;;;5011217;28;20025;-66
2023/10/23 05:47:54;;;;;;;387.70;31.60;;;;;;;;;;5010196;28;20438;-65
2023/10/23 05:50:20;;;;;;;412.70;33.33;;;;;;;;;;5010947;28;20048;-66
2023/10/23 05:52:45;;;;;;;239.80;29.07;;;;;;;;;;5010525;28;20444;-65
2023/10/23 05:55:10;;;;;;;285.13;29.53;;;;;;;;;;5010596;28;20030;-66
2023/10/23 05:57:35;;;;;;;366.77;31.73;;;;;;;;;;5010834;28;20030;-66
2023/10/23 06:00:01;;;;;;;421.97;32.17;;;;;;;;;;5008257;28;20388;-65
2023/10/23 06:02:27;;;;;;;385.07;31.40;;;;;;;;;;5010496;28;20537;-65
2023/10/23 06:04:52;;;;;;;360.07;31.47;;;;;;;;;;5010100;28;20033;-66
2023/10/23 06:07:17;;;;;;;349.10;30.93;;;;;;;;;;5010463;28;20018;-65
2023/10/23 06:09:42;;;;;;;312.87;29.57;;;;;;;;;;5010454;28;20014;-65
2023/10/23 06:12:09;;;;;;;325.80;29.20;;;;;;;;;;5010256;28;20045;-65
2023/10/23 06:14:34;;;;;;;321.43;30.30;;;;;;;;;;5010211;28;20020;-65
2023/10/23 06:16:59;;;;;;;374.67;32.30;;;;;;;;;;5010106;28;20101;-70
2023/10/23 06:19:25;;;;;;;295.77;28.23;;;;;;;;;;5010102;28;20091;-70
2023/10/23 06:21:50;;;;;;;367.03;28.70;;;;;;;;;;5010285;28;20029;-69
2023/10/23 06:24:15;;;;;;;366.33;30.07;;;;;;;;;;5010181;28;20018;-69
2023/10/23 06:26:40;;;;;;;426.07;33.17;;;;;;;;;;5010758;28;20017;-70
2023/10/23 06:29:06;;;;;;;388.20;30.77;;;;;;;;;;5010268;28;20043;-70
2023/10/23 06:31:31;;;;;;;357.90;29.40;;;;;;;;;;5010097;28;20037;-70
2023/10/23 06:33:56;;;;;;;353.77;29.57;;;;;;;;;;5010396;28;20060;-69
2023/10/23 06:36:21;;;;;;;287.30;27.93;;;;;;;;;;5010553;28;20042;-69
2023/10/23 06:38:47;;;;;;;340.53;32.23;;;;;;;;;;5010176;28;20388;-70
2023/10/23 06:41:12;;;;;;;293.33;28.93;;;;;;;;;;5010266;28;20467;-70
2023/10/23 06:43:38;;;;;;;371.83;30.30;;;;;;;;;;5010313;28;20049;-70
2023/10/23 06:46:04;;;;;;;419.93;31.87;;;;;;;;;;5010036;28;20468;-70
2023/10/23 06:48:29;;;;;;;387.47;29.27;;;;;;;;;;5010100;28;20038;-70
2023/10/23 06:50:55;;;;;;;296.00;26.83;;;;;;;;;;5009890;28;20030;-70
2023/10/23 06:53:20;;;;;;;358.13;28.60;;;;;;;;;;5009779;28;20033;-70
2023/10/23 06:55:46;;;;;;;344.43;28.83;;;;;;;;;;5010019;28;20030;-70
2023/10/23 06:58:11;;;;;;;381.60;29.80;;;;;;;;;;5010216;28;20025;-69
2023/10/23 07:00:36;;;;;;;370.40;29.53;;;;;;;;;;5009489;28;20033;-70
2023/10/23 07:03:01;;;;;;;284.90;26.07;;;;;;;;;;5009473;28;20119;-70
2023/10/23 07:05:27;;;;;;;220.60;24.73;;;;;;;;;;5009753;28;20018;-70
2023/10/23 07:07:52;;;;;;;311.13;26.67;;;;;;;;;;5009721;28;20022;-70
2023/10/23 07:10:17;;;;;;;201.67;22.43;;;;;;;;;;5009499;28;20025;-71
2023/10/23 07:12:42;;;;;;;425.27;30.37;;;;;;;;;;5009553;28;20020;-69
2023/10/23 07:15:08;;;;;;;282.50;25.23;;;;;;;;;;5009355;28;20061;-70
2023/10/23 07:17:34;;;;;;;207.37;23.20;;;;;;;;;;5009098;28;20053;-70
2023/10/23 07:19:59;;;;;;;305.67;26.50;;;;;;;;;;5009829;28;20022;-70
2023/10/23 07:22:24;;;;;;;399.67;29.53;;;;;;;;;;5009519;28;20476;-69
2023/10/23 07:24:49;;;;;;;385.50;28.43;;;;;;;;;;5009458;28;20062;-69
2023/10/23 07:27:15;;;;;;;470.30;30.47;;;;;;;;;;5009630;28;20033;-65
2023/10/23 07:29:40;;;;;;;440.53;32.63;;;;;;;;;;5011713;28;20021;-66
2023/10/23 07:32:05;;;;;;;342.67;27.87;;;;;;;;;;5012797;28;20021;-65
2023/10/23 07:34:31;;;;;;;408.80;29.77;;;;;;;;;;5012826;28;20029;-66
2023/10/23 07:36:56;;;;;;;400.57;28.80;;;;;;;;;;5012812;28;20022;-65
2023/10/23 07:39:21;;;;;;;441.57;30.23;;;;;;;;;;5008866;28;20025;-65
2023/10/23 07:41:46;;;;;;;419.43;28.43;;;;;;;;;;5012556;28;20025;-66
2023/10/23 07:44:12;;;;;;;325.93;26.67;;;;;;;;;;5012854;28;20026;-66
2023/10/23 07:46:37;;;;;;;292.57;24.57;;;;;;;;;;5012447;28;20022;-66
2023/10/23 07:49:02;;;;;;;397.07;28.57;;;;;;;;;;5012875;28;20033;-65
2023/10/23 07:51:27;;;;;;;340.73;26.10;;;;;;;;;;5012934;28;20022;-66
2023/10/23 07:53:52;;;;;;;475.60;30.67;;;;;;;;;;5012810;28;20026;-66
2023/10/23 07:56:18;;;;;;;386.37;28.23;;;;;;;;;;5012627;28;20429;-66
2023/10/23 07:58:43;;;;;;;383.63;27.70;;;;;;;;;;5010221;28;20387;-65
2023/10/23 08:01:10;;;;;;;582.70;33.23;;;;;;;;;;5011810;28;20387;-65
2023/10/23 08:03:35;;;;;;;523.90;31.53;;;;;;;;;;5011122;28;20036;-65
2023/10/23 08:06:03;;;;;;;519.93;31.53;;;;;;;;;;5012299;28;20093;-66
2023/10/23 08:08:28;;;;;;;406.53;28.17;;;;;;;;;;5008502;28;20014;-66
2023/10/23 08:10:53;;;;;;;392.07;28.83;;;;;;;;;;5012006;28;20135;-66
2023/10/23 08:13:19;;;;;;;468.77;31.60;;;;;;;;;;5011796;28;20026;-65
2023/10/23 08:15:44;;;;;;;368.60;26.87;;;;;;;;;;5012472;28;20025;-66
2023/10/23 08:18:10;;;;;;;432.00;31.33;;;;;;;;;;5011866;28;20128;-65
2023/10/23 08:20:35;;;;;;;500.77;35.13;;;;;;;;;;5011982;28;20056;-66
2023/10/23 08:23:00;;;;;;;408.50;29.17;;;;;;;;;;5012079;28;20014;-66
2023/10/23 08:25:26;;;;;;;474.23;30.30;;;;;;;;;;5012326;28;20018;-66
2023/10/23 08:27:51;;;;;;;451.37;31.63;;;;;;;;;;5011873;28;20428;-67
2023/10/23 08:30:16;;;;;;;331.03;24.87;;;;;;;;;;5012321;28;20392;-66
2023/10/23 08:32:41;;;;;;;451.00;30.10;;;;;;;;;;5012143;28;20365;-66
2023/10/23 08:35:07;;;;;;;392.80;29.17;;;;;;;;;;5011716;28;20387;-66
2023/10/23 08:37:32;;;;;;;191.50;22.83;;;;;;;;;;5012156;28;20034;-70
2023/10/23 08:39:57;;;;;;;171.47;21.60;;;;;;;;;;5011723;28;20119;-70
2023/10/23 08:42:22;;;;;;;189.03;24.43;;;;;;;;;;5012067;28;20409;-70
2023/10/23 08:44:50;;;;;;;172.17;23.13;;;;;;;;;;5011876;28;20414;-69
2023/10/23 08:47:15;;;;;;;187.90;24.33;;;;;;;;;;5012054;28;20018;-70
2023/10/23 08:49:41;;;;;;;158.83;22.80;;;;;;;;;;5011978;28;20430;-69
2023/10/23 08:52:09;;;;;;;162.23;24.17;;;;;;;;;;5011563;28;20026;-70
2023/10/23 08:54:34;;;;;;;208.70;25.50;;;;;;;;;;5012025;28;20471;-72
2023/10/23 08:57:00;;;;;;;186.47;24.57;;;;;;;;;;5011501;28;20041;-72
2023/10/23 08:59:25;;;;;;;158.77;24.70;;;;;;;;;;5011752;28;20022;-73
2023/10/23 09:01:50;;;;;;;164.37;24.60;;;;;;;;;;5011473;28;20089;-71
2023/10/23 09:04:16;;;;;;;148.83;24.40;;;;;;;;;;5011758;28;20026;-71
2023/10/23 09:06:45;;;;;;;143.63;24.30;;;;;;;;;;5011641;28;20033;-71
2023/10/23 09:09:10;;;;;;;139.97;23.80;;;;;;;;;;5009968;28;20098;-71
2023/10/23 09:11:41;;;;;;;114.17;23.30;;;;;;;;;;5011795;28;20067;-72
2023/10/23 09:14:06;;;;;;;108.45;23.00;;;;;;;;;;5011263;28;20018;-71
2023/10/23 09:16:32;;;;;;;107.43;22.60;;;;;;;;;;5011089;28;20526;-72
2023/10/23 09:18:57;;;;;;;90.10;21.57;;;;;;;;;;5011060;28;20404;-71
2023/10/23 09:21:22;;;;;;;95.87;21.93;;;;;;;;;;5011472;28;20022;-71
2023/10/23 09:23:55;;;;;;;93.03;20.67;;;;;;;;;;5010861;28;20480;-71
2023/10/23 09:26:24;;;;;;;80.33;20.33;;;;;;;;;;5011042;28;20022;-70
2023/10/23 09:28:51;;;;;;;70.77;19.13;;;;;;;;;;5011092;28;20021;-71
2023/10/23 09:31:17;;;;;;;63.60;18.13;;;;;;;;;;5011296;28;20040;-71
2023/10/23 09:33:46;;;;;;;59.20;17.67;;;;;;;;;;5011350;28;20491;-71
2023/10/23 09:36:11;;;;;;;56.22;17.10;;;;;;;;;;5010782;28;20018;-70
2023/10/23 09:38:39;;;;;;;52.63;17.85;;;;;;;;;;5010880;28;20033;-70
2023/10/23 09:41:06;;;;;;;46.53;17.58;;;;;;;;;;5010862;28;20029;-70
2023/10/23 09:43:31;;;;;;;42.30;17.20;;;;;;;;;;5008955;28;20013;-70
2023/10/23 09:45:57;;;;;;;41.90;16.50;;;;;;;;;;5010920;28;20018;-69
2023/10/23 09:48:23;;;;;;;42.88;17.38;;;;;;;;;;5011082;28;20105;-68
2023/10/23 09:50:48;;;;;;;36.80;14.77;;;;;;;;;;5010761;28;20040;-69
2023/10/23 09:53:15;;;;;;;35.63;15.38;;;;;;;;;;5006772;28;20353;-68
2023/10/23 09:55:42;;;;;;;31.88;14.63;;;;;;;;;;5010840;28;20460;-68
2023/10/23 09:58:11;;;;;;;31.65;14.15;;;;;;;;;;5010861;28;20022;-64
2023/10/23 10:00:38;;;;;;;31.08;14.25;;;;;;;;;;5010959;28;20464;-65
2023/10/23 10:03:05;;;;;;;33.67;15.15;;;;;;;;;;5010786;28;20467;-64
2023/10/23 10:05:41;;;;;;;32.45;14.70;;;;;;;;;;5010462;28;20017;-63
2023/10/23 10:08:17;;;;;;;33.13;14.68;;;;;;;;;;5010490;28;20052;-63
2023/10/23 10:10:43;;;;;;;30.33;14.32;;;;;;;;;;5010380;28;20030;-62
2023/10/23 10:13:09;;;;;;;30.30;14.32;;;;;;;;;;5010537;28;20033;-62
2023/10/23 10:15:35;;;;;;;35.22;17.80;;;;;;;;;;5010220;28;20122;-62
2023/10/23 10:18:00;;;;;;;29.73;15.32;;;;;;;;;;5010199;28;20046;-62
2023/10/23 10:20:25;;;;;;;33.47;15.15;;;;;;;;;;5010130;28;20017;-62
2023/10/23 10:22:58;;;;;;;30.42;14.80;;;;;;;;;;5010271;28;20022;-62
2023/10/23 10:25:24;;;;;;;31.05;14.68;;;;;;;;;;5010297;28;20048;-62
2023/10/23 10:27:56;;;;;;;30.33;14.45;;;;;;;;;;5010155;28;20057;-62
2023/10/23 10:30:37;;;;;;;34.78;15.27;;;;;;;;;;5010435;28;20456;-62
2023/10/23 10:33:02;;;;;;;32.67;14.73;;;;;;;;;;5010049;28;20026;-62
2023/10/23 10:35:28;;;;;;;28.10;14.65;;;;;;;;;;5010508;28;20093;-63
2023/10/23 10:37:58;;;;;;;28.83;14.48;;;;;;;;;;5010119;28;20025;-63
2023/10/23 10:40:23;;;;;;;28.80;13.85;;;;;;;;;;5010340;28;20463;-63
2023/10/23 10:42:50;;;;;;;29.38;14.50;;;;;;;;;;5010266;28;20093;-63
2023/10/23 10:45:16;;;;;;;32.78;15.70;;;;;;;;;;5010042;28;20525;-63
2023/10/23 10:47:41;;;;;;;34.55;16.17;;;;;;;;;;5008763;28;20022;-63
2023/10/23 10:50:07;;;;;;;34.83;15.93;;;;;;;;;;5010027;28;20472;-62
2023/10/23 10:52:33;;;;;;;32.40;15.15;;;;;;;;;;5010066;28;20021;-62
2023/10/23 10:55:01;;;;;;;33.20;15.05;;;;;;;;;;5010157;28;20022;-63
2023/10/23 10:57:27;;;;;;;32.97;15.60;;;;;;;;;;5006234;28;20014;-62
2023/10/23 10:59:55;;;;;;;31.05;14.73;;;;;;;;;;5009813;28;20033;-61
2023/10/23 11:02:22;;;;;;;33.17;15.90;;;;;;;;;;5010010;28;20089;-63
2023/10/23 11:04:47;;;;;;;32.57;15.10;;;;;;;;;;5011827;28;20077;-63
2023/10/23 11:07:13;;;;;;;30.60;15.00;;;;;;;;;;5013462;28;20034;-63
2023/10/23 11:09:38;;;;;;;37.38;16.00;;;;;;;;;;5013355;28;20079;-63
2023/10/23 11:12:03;;;;;;;38.40;16.05;;;;;;;;;;5013403;28;20021;-63
2023/10/23 11:14:28;;;;;;;33.25;15.68;;;;;;;;;;5013045;28;20041;-62
2023/10/23 11:16:54;;;;;;;35.73;16.90;;;;;;;;;;5013338;28;20563;-62
2023/10/23 11:19:19;;;;;;;35.47;15.93;;;;;;;;;;5012962;28;20403;-63
2023/10/23 11:21:45;;;;;;;30.33;13.88;;;;;;;;;;5012242;28;20022;-62
2023/10/23 11:24:11;;;;;;;30.75;15.65;;;;;;;;;;5012957;28;20018;-62
2023/10/23 11:26:37;;;;;;;33.10;14.98;;;;;;;;;;5012924;28;20063;-62
2023/10/23 11:29:03;;;;;;;36.17;14.60;;;;;;;;;;5012966;28;20018;-63
2023/10/23 11:31:28;;;;;;;35.03;16.55;;;;;;;;;;5012868;28;20684;-62
2023/10/23 11:33:55;;;;;;;31.95;13.68;;;;;;;;;;5013120;28;20082;-62
2023/10/23 11:36:21;;;;;;;28.27;13.43;;;;;;;;;;5012785;28;20026;-62
2023/10/23 11:38:46;;;;;;;25.90;12.35;;;;;;;;;;5012687;28;20029;-62
2023/10/23 11:41:11;;;;;;;27.73;12.55;;;;;;;;;;5012876;28;20049;-60
2023/10/23 11:43:38;;;;;;;28.90;15.32;;;;;;;;;;5009773;28;20383;-62
2023/10/23 11:46:04;;;;;;;27.87;14.27;;;;;;;;;;5010993;28;20222;-62
2023/10/23 11:48:30;;;;;;;29.50;14.13;;;;;;;;;;5012240;28;20029;-62
2023/10/23 11:50:55;;;;;;;25.23;13.20;;;;;;;;;;5012354;28;20026;-63
2023/10/23 11:53:20;;;;;;;28.47;13.00;;;;;;;;;;5012911;28;20029;-62
2023/10/23 11:55:46;;;;;;;27.88;13.43;;;;;;;;;;5012520;28;20039;-62
2023/10/23 11:58:11;;;;;;;24.67;12.90;;;;;;;;;;5012484;28;20490;-62
2023/10/23 12:00:37;;;;;;;26.70;13.57;;;;;;;;;;5012413;28;20025;-62
2023/10/23 12:03:04;;;;;;;23.88;12.77;;;;;;;;;;5008823;28;20463;-63
2023/10/23 12:05:29;;;;;;;26.38;13.23;;;;;;;;;;5012653;28;20018;-62
2023/10/23 12:07:55;;;;;;;24.52;13.07;;;;;;;;;;5012171;28;20095;-61
2023/10/23 12:10:21;;;;;;;20.30;11.05;;;;;;;;;;5012390;28;20037;-61
2023/10/23 12:12:47;;;;;;;22.17;11.25;;;;;;;;;;5012434;28;20476;-62
2023/10/23 12:15:13;;;;;;;24.25;11.70;;;;;;;;;;5011910;28;20113;-61
2023/10/23 12:17:39;;;;;;;22.83;12.10;;;;;;;;;;5011569;28;20038;-61
2023/10/23 12:20:08;;;;;;;23.55;11.50;;;;;;;;;;5008402;28;20083;-62
2023/10/23 12:22:37;;;;;;;20.48;10.43;;;;;;;;;;5012299;28;20033;-61
2023/10/23 12:25:04;;;;;;;21.33;11.38;;;;;;;;;;5012017;28;20022;-60
2023/10/23 12:27:29;;;;;;;20.80;10.55;;;;;;;;;;5011881;28;20018;-60
2023/10/23 12:29:57;;;;;;;21.83;11.23;;;;;;;;;;5012464;28;20059;-62
2023/10/23 12:32:22;;;;;;;24.40;11.68;;;;;;;;;;5011971;28;20022;-62
2023/10/23 12:34:47;;;;;;;20.90;11.05;;;;;;;;;;5012226;28;20022;-60
2023/10/23 12:37:13;;;;;;;24.95;10.85;;;;;;;;;;5012258;28;20095;-60
2023/10/23 12:39:38;;;;;;;25.02;11.38;;;;;;;;;;5012053;28;20398;-61
2023/10/23 12:42:04;;;;;;;21.35;11.20;;;;;;;;;;5012110;28;20379;-61
2023/10/23 12:44:29;;;;;;;22.95;11.15;;;;;;;;;;5012000;28;20014;-61
2023/10/23 12:46:54;;;;;;;25.95;11.40;;;;;;;;;;5011902;28;20484;-60
2023/10/23 12:49:19;;;;;;;19.42;11.02;;;;;;;;;;5012064;28;20426;-61
2023/10/23 12:51:44;;;;;;;21.70;10.52;;;;;;;;;;5011982;28;20018;-63
2023/10/23 12:54:10;;;;;;;22.02;11.02;;;;;;;;;;5011691;28;20018;-60
2023/10/23 12:56:36;;;;;;;20.42;10.50;;;;;;;;;;5011819;28;20041;-61
2023/10/23 12:59:02;;;;;;;22.95;10.95;;;;;;;;;;5011692;28;20102;-62
2023/10/23 13:01:27;;;;;;;21.85;11.68;;;;;;;;;;5011549;28;20104;-63
2023/10/23 13:03:52;;;;;;;21.33;11.60;;;;;;;;;;5011501;28;20018;-63
2023/10/23 13:06:17;;;;;;;23.30;11.23;;;;;;;;;;5011575;28;20018;-63
2023/10/23 13:08:43;;;;;;;21.48;11.02;;;;;;;;;;5011780;28;20064;-62
2023/10/23 13:11:08;;;;;;;19.70;11.10;;;;;;;;;;5011267;28;20021;-62
2023/10/23 13:13:33;;;;;;;20.15;10.80;;;;;;;;;;5011225;28;20030;-62
2023/10/23 13:15:59;;;;;;;21.38;11.43;;;;;;;;;;5011652;28;20473;-63
2023/10/23 13:18:24;;;;;;;19.20;10.40;;;;;;;;;;5011257;28;20388;-61
2023/10/23 13:20:49;;;;;;;19.92;10.15;;;;;;;;;;5011452;28;20369;-67
2023/10/23 13:23:15;;;;;;;18.75;10.63;;;;;;;;;;5011497;28;20380;-67
2023/10/23 13:25:40;;;;;;;18.75;10.55;;;;;;;;;;5010907;28;20022;-67
2023/10/23 13:28:05;;;;;;;18.60;9.82;;;;;;;;;;5010321;28;20021;-66
2023/10/23 13:30:31;;;;;;;19.38;10.70;;;;;;;;;;5011080;28;20468;-66
2023/10/23 13:32:56;;;;;;;20.65;10.88;;;;;;;;;;5007014;28;20028;-67
2023/10/23 13:35:21;;;;;;;20.30;9.80;;;;;;;;;;5009710;28;20026;-65
2023/10/23 13:37:46;;;;;;;17.42;8.55;;;;;;;;;;5008501;28;20036;-65
2023/10/23 13:40:12;;;;;;;18.25;10.13;;;;;;;;;;5011363;28;20018;-67
2023/10/23 13:42:37;;;;;;;22.83;10.63;;;;;;;;;;5011139;28;20142;-67
2023/10/23 13:45:04;;;;;;;18.42;10.07;;;;;;;;;;5010292;28;20357;-67
2023/10/23 13:47:29;;;;;;;20.00;11.20;;;;;;;;;;5011223;28;20010;-68
2023/10/23 13:49:57;;;;;;;19.27;10.30;;;;;;;;;;5010983;28;20383;-67
2023/10/23 13:52:22;;;;;;;17.45;9.07;;;;;;;;;;5010991;28;20538;-67
2023/10/23 13:54:47;;;;;;;19.33;10.20;;;;;;;;;;5007497;28;20112;-68
2023/10/23 13:57:13;;;;;;;18.92;9.55;;;;;;;;;;5010742;28;20387;-67
2023/10/23 13:59:39;;;;;;;25.17;10.13;;;;;;;;;;5010839;28;20468;-67
2023/10/23 14:02:04;;;;;;;20.33;10.55;;;;;;;;;;5010567;28;20006;-67
2023/10/23 14:04:29;;;;;;;19.33;10.07;;;;;;;;;;5010873;28;20097;-67